sensor_id;sensor_type;location;lat;lon;timestamp;P1;durP1;ratioP1;P2;durP2;ratioP2
11614;SDS011;5863;52.832;4.758;2024-02-14T00:00:05;11.10;;;9.57;;
11614;SDS011;5863;52.832;4.758;2024-02-14T00:02:35;14.18;;;9.90;;
11614;SDS011;5863;52.832;4.758;2024-02-14T00:05:02;17.23;;;10.55;;
11614;SDS011;5863;52.832;4.758;2024-02-14T00:07:29;14.68;;;10.80;;
11614;SDS011;5863;52.832;4.758;2024-02-14T00:09:56;15.15;;;10.50;;
11614;SDS011;5863;52.832;4.758;2024-02-14T00:12:24;14.93;;;11.20;;
11614;SDS011;5863;52.832;4.758;2024-02-14T00:14:51;16.02;;;11.00;;
11614;SDS011;5863;52.832;4.758;2024-02-14T00:17:18;16.70;;;11.77;;
11614;SDS011;5863;52.832;4.758;2024-02-14T00:19:45;15.07;;;11.07;;
11614;SDS011;5863;52.832;4.758;2024-02-14T00:22:12;16.38;;;10.95;;
11614;SDS011;5863;52.832;4.758;2024-02-14T00:24:38;18.15;;;10.70;;
11614;SDS011;5863;52.832;4.758;2024-02-14T00:27:05;16.05;;;9.85;;
11614;SDS011;5863;52.832;4.758;2024-02-14T00:29:34;15.63;;;10.93;;
11614;SDS011;5863;52.832;4.758;2024-02-14T00:32:01;18.05;;;9.93;;
11614;SDS011;5863;52.832;4.758;2024-02-14T00:34:28;15.23;;;8.57;;
11614;SDS011;5863;52.832;4.758;2024-02-14T00:36:55;14.00;;;8.77;;
11614;SDS011;5863;52.832;4.758;2024-02-14T00:39:22;15.65;;;8.57;;
11614;SDS011;5863;52.832;4.758;2024-02-14T00:41:49;15.82;;;7.35;;
11614;SDS011;5863;52.832;4.758;2024-02-14T00:44:17;13.95;;;7.50;;
11614;SDS011;5863;52.832;4.758;2024-02-14T00:46:46;13.43;;;7.43;;
11614;SDS011;5863;52.832;4.758;2024-02-14T00:49:13;11.73;;;7.35;;
11614;SDS011;5863;52.832;4.758;2024-02-14T00:51:40;11.55;;;6.85;;
11614;SDS011;5863;52.832;4.758;2024-02-14T00:54:07;13.73;;;7.40;;
11614;SDS011;5863;52.832;4.758;2024-02-14T00:56:34;14.40;;;7.60;;
11614;SDS011;5863;52.832;4.758;2024-02-14T00:59:01;13.90;;;6.70;;
11614;SDS011;5863;52.832;4.758;2024-02-14T01:01:28;13.30;;;7.75;;
11614;SDS011;5863;52.832;4.758;2024-02-14T01:03:56;13.05;;;7.30;;
11614;SDS011;5863;52.832;4.758;2024-02-14T01:06:23;12.55;;;7.03;;
11614;SDS011;5863;52.832;4.758;2024-02-14T01:08:49;16.55;;;7.40;;
11614;SDS011;5863;52.832;4.758;2024-02-14T01:11:16;13.57;;;7.13;;
11614;SDS011;5863;52.832;4.758;2024-02-14T01:13:43;17.95;;;6.80;;
11614;SDS011;5863;52.832;4.758;2024-02-14T01:16:10;15.27;;;6.85;;
11614;SDS011;5863;52.832;4.758;2024-02-14T01:18:37;15.40;;;6.82;;
11614;SDS011;5863;52.832;4.758;2024-02-14T01:21:06;10.65;;;6.38;;
11614;SDS011;5863;52.832;4.758;2024-02-14T01:23:32;10.30;;;6.00;;
11614;SDS011;5863;52.832;4.758;2024-02-14T01:26:00;16.15;;;6.43;;
11614;SDS011;5863;52.832;4.758;2024-02-14T01:28:27;15.25;;;6.00;;
11614;SDS011;5863;52.832;4.758;2024-02-14T01:30:54;13.43;;;6.55;;
11614;SDS011;5863;52.832;4.758;2024-02-14T01:33:22;12.60;;;5.80;;
11614;SDS011;5863;52.832;4.758;2024-02-14T01:35:48;15.13;;;6.00;;
11614;SDS011;5863;52.832;4.758;2024-02-14T01:38:17;10.82;;;5.18;;
11614;SDS011;5863;52.832;4.758;2024-02-14T01:40:43;14.00;;;5.35;;
11614;SDS011;5863;52.832;4.758;2024-02-14T01:43:11;12.85;;;5.38;;
11614;SDS011;5863;52.832;4.758;2024-02-14T01:45:39;11.80;;;5.65;;
11614;SDS011;5863;52.832;4.758;2024-02-14T01:48:06;14.88;;;6.03;;
11614;SDS011;5863;52.832;4.758;2024-02-14T01:50:34;16.30;;;5.25;;
11614;SDS011;5863;52.832;4.758;2024-02-14T01:53:01;15.50;;;5.78;;
11614;SDS011;5863;52.832;4.758;2024-02-14T01:55:31;15.88;;;5.60;;
11614;SDS011;5863;52.832;4.758;2024-02-14T01:57:59;19.58;;;5.53;;
11614;SDS011;5863;52.832;4.758;2024-02-14T02:00:28;23.67;;;6.90;;
11614;SDS011;5863;52.832;4.758;2024-02-14T02:02:56;21.13;;;6.40;;
11614;SDS011;5863;52.832;4.758;2024-02-14T02:05:23;26.10;;;6.93;;
11614;SDS011;5863;52.832;4.758;2024-02-14T02:07:51;24.67;;;6.53;;
11614;SDS011;5863;52.832;4.758;2024-02-14T02:10:19;23.90;;;6.05;;
11614;SDS011;5863;52.832;4.758;2024-02-14T02:12:48;28.85;;;6.03;;
11614;SDS011;5863;52.832;4.758;2024-02-14T02:15:16;31.55;;;6.57;;
11614;SDS011;5863;52.832;4.758;2024-02-14T02:17:43;28.40;;;6.47;;
11614;SDS011;5863;52.832;4.758;2024-02-14T02:20:11;22.77;;;5.32;;
11614;SDS011;5863;52.832;4.758;2024-02-14T02:22:42;22.65;;;5.70;;
11614;SDS011;5863;52.832;4.758;2024-02-14T02:25:13;26.33;;;5.97;;
11614;SDS011;5863;52.832;4.758;2024-02-14T02:27:40;24.52;;;6.32;;
11614;SDS011;5863;52.832;4.758;2024-02-14T02:30:07;28.80;;;5.00;;
11614;SDS011;5863;52.832;4.758;2024-02-14T02:32:35;27.33;;;5.22;;
11614;SDS011;5863;52.832;4.758;2024-02-14T02:35:03;18.75;;;4.70;;
11614;SDS011;5863;52.832;4.758;2024-02-14T02:37:30;19.58;;;4.47;;
11614;SDS011;5863;52.832;4.758;2024-02-14T02:39:58;26.58;;;4.70;;
11614;SDS011;5863;52.832;4.758;2024-02-14T02:42:25;27.77;;;5.05;;
11614;SDS011;5863;52.832;4.758;2024-02-14T02:44:52;24.23;;;4.90;;
11614;SDS011;5863;52.832;4.758;2024-02-14T02:47:19;23.70;;;5.63;;
11614;SDS011;5863;52.832;4.758;2024-02-14T02:49:46;24.25;;;4.95;;
11614;SDS011;5863;52.832;4.758;2024-02-14T02:52:13;17.48;;;4.93;;
11614;SDS011;5863;52.832;4.758;2024-02-14T02:54:40;26.38;;;4.53;;
11614;SDS011;5863;52.832;4.758;2024-02-14T02:57:10;23.33;;;4.88;;
11614;SDS011;5863;52.832;4.758;2024-02-14T02:59:37;30.08;;;5.13;;
11614;SDS011;5863;52.832;4.758;2024-02-14T03:02:07;24.52;;;5.13;;
11614;SDS011;5863;52.832;4.758;2024-02-14T03:04:37;22.00;;;4.28;;
11614;SDS011;5863;52.832;4.758;2024-02-14T03:07:04;24.40;;;4.07;;
11614;SDS011;5863;52.832;4.758;2024-02-14T03:09:33;33.03;;;5.25;;
11614;SDS011;5863;52.832;4.758;2024-02-14T03:12:00;27.92;;;5.13;;
11614;SDS011;5863;52.832;4.758;2024-02-14T03:14:29;32.58;;;4.85;;
11614;SDS011;5863;52.832;4.758;2024-02-14T03:16:57;33.80;;;6.40;;
11614;SDS011;5863;52.832;4.758;2024-02-14T03:19:24;40.42;;;5.97;;
11614;SDS011;5863;52.832;4.758;2024-02-14T03:21:52;42.67;;;6.70;;
11614;SDS011;5863;52.832;4.758;2024-02-14T03:24:19;33.95;;;5.95;;
11614;SDS011;5863;52.832;4.758;2024-02-14T03:26:46;33.13;;;5.80;;
11614;SDS011;5863;52.832;4.758;2024-02-14T03:29:16;37.70;;;7.00;;
11614;SDS011;5863;52.832;4.758;2024-02-14T03:31:46;42.35;;;6.95;;
11614;SDS011;5863;52.832;4.758;2024-02-14T03:34:12;42.92;;;6.50;;
11614;SDS011;5863;52.832;4.758;2024-02-14T03:36:39;41.75;;;6.95;;
11614;SDS011;5863;52.832;4.758;2024-02-14T03:39:08;39.50;;;6.70;;
11614;SDS011;5863;52.832;4.758;2024-02-14T03:41:35;29.08;;;5.97;;
11614;SDS011;5863;52.832;4.758;2024-02-14T03:44:03;36.65;;;7.18;;
11614;SDS011;5863;52.832;4.758;2024-02-14T03:46:31;35.67;;;6.20;;
11614;SDS011;5863;52.832;4.758;2024-02-14T03:49:01;30.55;;;6.60;;
11614;SDS011;5863;52.832;4.758;2024-02-14T03:51:28;45.55;;;7.47;;
11614;SDS011;5863;52.832;4.758;2024-02-14T03:53:55;36.28;;;6.50;;
11614;SDS011;5863;52.832;4.758;2024-02-14T03:56:22;47.10;;;6.88;;
11614;SDS011;5863;52.832;4.758;2024-02-14T03:58:49;33.95;;;6.18;;
11614;SDS011;5863;52.832;4.758;2024-02-14T04:01:16;44.10;;;6.78;;
11614;SDS011;5863;52.832;4.758;2024-02-14T04:03:45;40.17;;;7.05;;
11614;SDS011;5863;52.832;4.758;2024-02-14T04:06:15;39.83;;;6.55;;
11614;SDS011;5863;52.832;4.758;2024-02-14T04:08:41;37.22;;;6.68;;
11614;SDS011;5863;52.832;4.758;2024-02-14T04:11:08;35.88;;;7.50;;
11614;SDS011;5863;52.832;4.758;2024-02-14T04:13:38;36.97;;;5.88;;
11614;SDS011;5863;52.832;4.758;2024-02-14T04:16:05;45.97;;;6.22;;
11614;SDS011;5863;52.832;4.758;2024-02-14T04:18:32;38.70;;;6.28;;
11614;SDS011;5863;52.832;4.758;2024-02-14T04:20:59;41.42;;;6.13;;
11614;SDS011;5863;52.832;4.758;2024-02-14T04:23:27;37.15;;;6.38;;
11614;SDS011;5863;52.832;4.758;2024-02-14T04:25:54;43.45;;;7.05;;
11614;SDS011;5863;52.832;4.758;2024-02-14T04:28:21;40.80;;;6.13;;
11614;SDS011;5863;52.832;4.758;2024-02-14T04:30:47;46.03;;;6.80;;
11614;SDS011;5863;52.832;4.758;2024-02-14T04:33:14;39.33;;;6.57;;
11614;SDS011;5863;52.832;4.758;2024-02-14T04:35:42;38.65;;;6.57;;
11614;SDS011;5863;52.832;4.758;2024-02-14T04:38:09;44.85;;;6.47;;
11614;SDS011;5863;52.832;4.758;2024-02-14T04:40:37;35.65;;;6.40;;
11614;SDS011;5863;52.832;4.758;2024-02-14T04:43:04;36.28;;;7.05;;
11614;SDS011;5863;52.832;4.758;2024-02-14T04:45:31;36.60;;;6.93;;
11614;SDS011;5863;52.832;4.758;2024-02-14T04:47:58;35.15;;;6.35;;
11614;SDS011;5863;52.832;4.758;2024-02-14T04:50:25;38.42;;;7.03;;
11614;SDS011;5863;52.832;4.758;2024-02-14T04:52:51;46.85;;;7.30;;
11614;SDS011;5863;52.832;4.758;2024-02-14T04:55:18;47.97;;;7.40;;
11614;SDS011;5863;52.832;4.758;2024-02-14T04:57:47;34.58;;;7.03;;
11614;SDS011;5863;52.832;4.758;2024-02-14T05:00:14;41.22;;;7.80;;
11614;SDS011;5863;52.832;4.758;2024-02-14T05:02:41;42.90;;;7.35;;
11614;SDS011;5863;52.832;4.758;2024-02-14T05:05:08;35.75;;;6.68;;
11614;SDS011;5863;52.832;4.758;2024-02-14T05:07:35;47.10;;;7.75;;
11614;SDS011;5863;52.832;4.758;2024-02-14T05:10:02;42.35;;;6.15;;
11614;SDS011;5863;52.832;4.758;2024-02-14T05:12:30;38.30;;;6.45;;
11614;SDS011;5863;52.832;4.758;2024-02-14T05:14:58;44.03;;;6.55;;
11614;SDS011;5863;52.832;4.758;2024-02-14T05:17:25;52.20;;;7.90;;
11614;SDS011;5863;52.832;4.758;2024-02-14T05:19:51;46.33;;;7.13;;
11614;SDS011;5863;52.832;4.758;2024-02-14T05:22:18;44.03;;;6.35;;
11614;SDS011;5863;52.832;4.758;2024-02-14T05:24:45;41.15;;;7.15;;
11614;SDS011;5863;52.832;4.758;2024-02-14T05:27:12;41.58;;;6.78;;
11614;SDS011;5863;52.832;4.758;2024-02-14T05:29:39;43.90;;;7.00;;
11614;SDS011;5863;52.832;4.758;2024-02-14T05:32:07;37.70;;;7.00;;
11614;SDS011;5863;52.832;4.758;2024-02-14T05:34:35;37.33;;;6.82;;
11614;SDS011;5863;52.832;4.758;2024-02-14T05:37:02;32.72;;;6.10;;
11614;SDS011;5863;52.832;4.758;2024-02-14T05:39:30;36.28;;;7.22;;
11614;SDS011;5863;52.832;4.758;2024-02-14T05:41:57;41.83;;;7.18;;
11614;SDS011;5863;52.832;4.758;2024-02-14T05:44:24;33.20;;;5.50;;
11614;SDS011;5863;52.832;4.758;2024-02-14T05:46:52;49.90;;;7.20;;
11614;SDS011;5863;52.832;4.758;2024-02-14T05:49:21;35.92;;;6.43;;
11614;SDS011;5863;52.832;4.758;2024-02-14T05:51:48;33.83;;;6.45;;
11614;SDS011;5863;52.832;4.758;2024-02-14T05:54:16;36.92;;;6.35;;
11614;SDS011;5863;52.832;4.758;2024-02-14T05:56:42;46.70;;;7.70;;
11614;SDS011;5863;52.832;4.758;2024-02-14T05:59:09;32.90;;;6.38;;
11614;SDS011;5863;52.832;4.758;2024-02-14T06:01:36;46.95;;;7.63;;
11614;SDS011;5863;52.832;4.758;2024-02-14T06:04:03;37.90;;;6.32;;
11614;SDS011;5863;52.832;4.758;2024-02-14T06:06:31;37.85;;;6.78;;
11614;SDS011;5863;52.832;4.758;2024-02-14T06:08:58;42.88;;;6.72;;
11614;SDS011;5863;52.832;4.758;2024-02-14T06:11:25;29.23;;;5.90;;
11614;SDS011;5863;52.832;4.758;2024-02-14T06:13:52;42.08;;;6.90;;
11614;SDS011;5863;52.832;4.758;2024-02-14T06:16:19;33.28;;;6.38;;
11614;SDS011;5863;52.832;4.758;2024-02-14T06:18:46;37.42;;;7.13;;
11614;SDS011;5863;52.832;4.758;2024-02-14T06:21:12;38.15;;;7.05;;
11614;SDS011;5863;52.832;4.758;2024-02-14T06:23:41;45.22;;;6.97;;
11614;SDS011;5863;52.832;4.758;2024-02-14T06:26:09;41.50;;;6.95;;
11614;SDS011;5863;52.832;4.758;2024-02-14T06:28:37;40.45;;;7.05;;
11614;SDS011;5863;52.832;4.758;2024-02-14T06:31:04;44.30;;;7.22;;
11614;SDS011;5863;52.832;4.758;2024-02-14T06:33:31;39.10;;;7.03;;
11614;SDS011;5863;52.832;4.758;2024-02-14T06:35:57;35.90;;;7.15;;
11614;SDS011;5863;52.832;4.758;2024-02-14T06:38:24;45.03;;;7.57;;
11614;SDS011;5863;52.832;4.758;2024-02-14T06:40:53;44.45;;;7.38;;
11614;SDS011;5863;52.832;4.758;2024-02-14T06:43:19;39.58;;;7.25;;
11614;SDS011;5863;52.832;4.758;2024-02-14T06:45:46;45.65;;;7.80;;
11614;SDS011;5863;52.832;4.758;2024-02-14T06:48:13;36.65;;;6.82;;
11614;SDS011;5863;52.832;4.758;2024-02-14T06:50:40;34.75;;;7.40;;
11614;SDS011;5863;52.832;4.758;2024-02-14T06:53:07;40.90;;;7.93;;
11614;SDS011;5863;52.832;4.758;2024-02-14T06:55:34;40.45;;;7.43;;
11614;SDS011;5863;52.832;4.758;2024-02-14T06:58:02;48.85;;;8.90;;
11614;SDS011;5863;52.832;4.758;2024-02-14T07:00:30;42.83;;;7.63;;
11614;SDS011;5863;52.832;4.758;2024-02-14T07:02:56;42.50;;;8.77;;
11614;SDS011;5863;52.832;4.758;2024-02-14T07:05:23;46.65;;;8.43;;
11614;SDS011;5863;52.832;4.758;2024-02-14T07:07:51;33.53;;;6.97;;
11614;SDS011;5863;52.832;4.758;2024-02-14T07:10:18;46.47;;;8.40;;
11614;SDS011;5863;52.832;4.758;2024-02-14T07:12:44;36.78;;;7.65;;
11614;SDS011;5863;52.832;4.758;2024-02-14T07:15:13;32.45;;;7.95;;
11614;SDS011;5863;52.832;4.758;2024-02-14T07:17:40;43.45;;;8.13;;
11614;SDS011;5863;52.832;4.758;2024-02-14T07:20:07;37.38;;;7.65;;
11614;SDS011;5863;52.832;4.758;2024-02-14T07:22:34;35.20;;;7.72;;
11614;SDS011;5863;52.832;4.758;2024-02-14T07:25:01;44.33;;;8.13;;
11614;SDS011;5863;52.832;4.758;2024-02-14T07:27:30;35.80;;;7.03;;
11614;SDS011;5863;52.832;4.758;2024-02-14T07:29:57;25.20;;;7.18;;
11614;SDS011;5863;52.832;4.758;2024-02-14T07:32:25;38.38;;;7.47;;
11614;SDS011;5863;52.832;4.758;2024-02-14T07:34:52;30.45;;;6.80;;
11614;SDS011;5863;52.832;4.758;2024-02-14T07:37:19;28.77;;;6.20;;
11614;SDS011;5863;52.832;4.758;2024-02-14T07:39:46;30.92;;;7.13;;
11614;SDS011;5863;52.832;4.758;2024-02-14T07:42:13;28.83;;;6.47;;
11614;SDS011;5863;52.832;4.758;2024-02-14T07:44:40;33.25;;;6.50;;
11614;SDS011;5863;52.832;4.758;2024-02-14T07:47:07;25.38;;;6.00;;
11614;SDS011;5863;52.832;4.758;2024-02-14T07:49:36;28.95;;;6.30;;
11614;SDS011;5863;52.832;4.758;2024-02-14T07:52:03;26.98;;;6.25;;
11614;SDS011;5863;52.832;4.758;2024-02-14T07:54:30;24.13;;;5.75;;
11614;SDS011;5863;52.832;4.758;2024-02-14T07:56:57;23.15;;;6.10;;
11614;SDS011;5863;52.832;4.758;2024-02-14T07:59:23;21.73;;;5.97;;
11614;SDS011;5863;52.832;4.758;2024-02-14T08:01:50;26.38;;;7.47;;
11614;SDS011;5863;52.832;4.758;2024-02-14T08:04:17;34.10;;;7.95;;
11614;SDS011;5863;52.832;4.758;2024-02-14T08:06:46;41.45;;;8.50;;
11614;SDS011;5863;52.832;4.758;2024-02-14T08:09:14;35.17;;;7.60;;
11614;SDS011;5863;52.832;4.758;2024-02-14T08:11:41;29.95;;;8.40;;
11614;SDS011;5863;52.832;4.758;2024-02-14T08:14:07;30.25;;;8.45;;
11614;SDS011;5863;52.832;4.758;2024-02-14T08:16:34;34.63;;;8.32;;
11614;SDS011;5863;52.832;4.758;2024-02-14T08:19:01;26.30;;;7.55;;
11614;SDS011;5863;52.832;4.758;2024-02-14T08:21:28;30.83;;;7.90;;
11614;SDS011;5863;52.832;4.758;2024-02-14T08:23:57;22.55;;;6.93;;
11614;SDS011;5863;52.832;4.758;2024-02-14T08:26:24;36.53;;;7.95;;
11614;SDS011;5863;52.832;4.758;2024-02-14T08:28:51;29.58;;;7.40;;
11614;SDS011;5863;52.832;4.758;2024-02-14T08:31:19;29.00;;;6.82;;
11614;SDS011;5863;52.832;4.758;2024-02-14T08:33:46;34.70;;;7.53;;
11614;SDS011;5863;52.832;4.758;2024-02-14T08:36:13;33.88;;;6.90;;
11614;SDS011;5863;52.832;4.758;2024-02-14T08:38:41;37.10;;;7.00;;
11614;SDS011;5863;52.832;4.758;2024-02-14T08:41:10;32.78;;;6.55;;
11614;SDS011;5863;52.832;4.758;2024-02-14T08:43:39;28.65;;;6.88;;
11614;SDS011;5863;52.832;4.758;2024-02-14T08:46:09;31.60;;;6.72;;
11614;SDS011;5863;52.832;4.758;2024-02-14T08:48:36;26.90;;;5.53;;
11614;SDS011;5863;52.832;4.758;2024-02-14T08:51:06;31.15;;;6.07;;
11614;SDS011;5863;52.832;4.758;2024-02-14T08:53:34;27.25;;;5.93;;
11614;SDS011;5863;52.832;4.758;2024-02-14T08:56:01;27.27;;;5.93;;
11614;SDS011;5863;52.832;4.758;2024-02-14T08:58:29;25.80;;;5.05;;
11614;SDS011;5863;52.832;4.758;2024-02-14T09:00:56;26.88;;;5.32;;
11614;SDS011;5863;52.832;4.758;2024-02-14T09:03:23;30.42;;;5.30;;
11614;SDS011;5863;52.832;4.758;2024-02-14T09:05:49;26.17;;;5.25;;
11614;SDS011;5863;52.832;4.758;2024-02-14T09:08:18;25.42;;;4.90;;
11614;SDS011;5863;52.832;4.758;2024-02-14T09:10:45;24.15;;;4.50;;
11614;SDS011;5863;52.832;4.758;2024-02-14T09:13:13;23.13;;;5.03;;
11614;SDS011;5863;52.832;4.758;2024-02-14T09:15:42;26.65;;;5.78;;
11614;SDS011;5863;52.832;4.758;2024-02-14T09:18:09;21.85;;;5.00;;
11614;SDS011;5863;52.832;4.758;2024-02-14T09:20:36;24.98;;;4.80;;
11614;SDS011;5863;52.832;4.758;2024-02-14T09:23:03;27.30;;;4.88;;
11614;SDS011;5863;52.832;4.758;2024-02-14T09:25:30;29.60;;;6.43;;
11614;SDS011;5863;52.832;4.758;2024-02-14T09:27:57;19.65;;;6.03;;
11614;SDS011;5863;52.832;4.758;2024-02-14T09:30:24;22.23;;;5.93;;
11614;SDS011;5863;52.832;4.758;2024-02-14T09:32:52;25.90;;;5.28;;
11614;SDS011;5863;52.832;4.758;2024-02-14T09:35:19;27.90;;;6.28;;
11614;SDS011;5863;52.832;4.758;2024-02-14T09:37:46;24.38;;;5.80;;
11614;SDS011;5863;52.832;4.758;2024-02-14T09:40:13;26.98;;;6.15;;
11614;SDS011;5863;52.832;4.758;2024-02-14T09:42:43;29.67;;;6.28;;
11614;SDS011;5863;52.832;4.758;2024-02-14T09:45:14;25.98;;;5.65;;
11614;SDS011;5863;52.832;4.758;2024-02-14T09:47:41;25.50;;;6.22;;
11614;SDS011;5863;52.832;4.758;2024-02-14T09:50:10;23.85;;;5.97;;
11614;SDS011;5863;52.832;4.758;2024-02-14T09:52:38;28.83;;;5.07;;
11614;SDS011;5863;52.832;4.758;2024-02-14T09:55:06;21.58;;;5.72;;
11614;SDS011;5863;52.832;4.758;2024-02-14T09:57:36;26.13;;;6.13;;
11614;SDS011;5863;52.832;4.758;2024-02-14T10:00:03;24.30;;;5.57;;
11614;SDS011;5863;52.832;4.758;2024-02-14T10:02:31;25.02;;;5.70;;
11614;SDS011;5863;52.832;4.758;2024-02-14T10:04:58;22.80;;;5.13;;
11614;SDS011;5863;52.832;4.758;2024-02-14T10:07:26;17.92;;;5.78;;
11614;SDS011;5863;52.832;4.758;2024-02-14T10:09:53;24.45;;;5.30;;
11614;SDS011;5863;52.832;4.758;2024-02-14T10:12:20;21.90;;;5.05;;
11614;SDS011;5863;52.832;4.758;2024-02-14T10:14:47;18.65;;;4.60;;
11614;SDS011;5863;52.832;4.758;2024-02-14T10:17:17;20.15;;;4.95;;
11614;SDS011;5863;52.832;4.758;2024-02-14T10:19:54;16.73;;;4.93;;
11614;SDS011;5863;52.832;4.758;2024-02-14T10:22:22;18.58;;;5.28;;
11614;SDS011;5863;52.832;4.758;2024-02-14T10:24:51;20.02;;;5.05;;
11614;SDS011;5863;52.832;4.758;2024-02-14T10:27:18;21.73;;;4.82;;
11614;SDS011;5863;52.832;4.758;2024-02-14T10:29:47;22.80;;;5.57;;
11614;SDS011;5863;52.832;4.758;2024-02-14T10:32:14;19.10;;;4.72;;
11614;SDS011;5863;52.832;4.758;2024-02-14T10:34:42;21.05;;;4.90;;
11614;SDS011;5863;52.832;4.758;2024-02-14T10:37:12;17.38;;;5.30;;
11614;SDS011;5863;52.832;4.758;2024-02-14T10:39:41;21.30;;;4.72;;
11614;SDS011;5863;52.832;4.758;2024-02-14T10:42:11;19.67;;;5.53;;
11614;SDS011;5863;52.832;4.758;2024-02-14T10:44:38;22.92;;;5.43;;
11614;SDS011;5863;52.832;4.758;2024-02-14T10:47:06;20.00;;;5.55;;
11614;SDS011;5863;52.832;4.758;2024-02-14T10:49:37;15.13;;;6.28;;
11614;SDS011;5863;52.832;4.758;2024-02-14T10:52:06;22.75;;;5.45;;
11614;SDS011;5863;52.832;4.758;2024-02-14T10:54:35;21.40;;;6.45;;
11614;SDS011;5863;52.832;4.758;2024-02-14T10:57:04;25.92;;;6.63;;
11614;SDS011;5863;52.832;4.758;2024-02-14T10:59:37;20.85;;;6.72;;
11614;SDS011;5863;52.832;4.758;2024-02-14T11:02:09;22.30;;;6.78;;
11614;SDS011;5863;52.832;4.758;2024-02-14T11:04:37;21.88;;;6.57;;
11614;SDS011;5863;52.832;4.758;2024-02-14T11:07:08;17.95;;;6.45;;
11614;SDS011;5863;52.832;4.758;2024-02-14T11:09:36;21.73;;;7.00;;
11614;SDS011;5863;52.832;4.758;2024-02-14T11:12:04;23.00;;;6.03;;
11614;SDS011;5863;52.832;4.758;2024-02-14T11:14:34;16.10;;;6.50;;
11614;SDS011;5863;52.832;4.758;2024-02-14T11:17:08;19.45;;;5.50;;
11614;SDS011;5863;52.832;4.758;2024-02-14T11:19:35;18.67;;;5.55;;
11614;SDS011;5863;52.832;4.758;2024-02-14T11:22:11;22.92;;;5.65;;
11614;SDS011;5863;52.832;4.758;2024-02-14T11:24:39;23.35;;;6.40;;
11614;SDS011;5863;52.832;4.758;2024-02-14T11:27:09;17.55;;;6.10;;
11614;SDS011;5863;52.832;4.758;2024-02-14T11:29:38;27.02;;;6.63;;
11614;SDS011;5863;52.832;4.758;2024-02-14T11:32:07;25.98;;;6.47;;
11614;SDS011;5863;52.832;4.758;2024-02-14T11:34:35;28.08;;;7.18;;
11614;SDS011;5863;52.832;4.758;2024-02-14T11:37:02;25.20;;;6.78;;
11614;SDS011;5863;52.832;4.758;2024-02-14T11:39:30;19.08;;;5.30;;
11614;SDS011;5863;52.832;4.758;2024-02-14T11:41:59;27.13;;;6.35;;
11614;SDS011;5863;52.832;4.758;2024-02-14T11:44:26;18.67;;;5.50;;
11614;SDS011;5863;52.832;4.758;2024-02-14T11:46:53;18.17;;;5.90;;
11614;SDS011;5863;52.832;4.758;2024-02-14T11:49:21;16.17;;;5.60;;
11614;SDS011;5863;52.832;4.758;2024-02-14T11:51:48;20.30;;;5.65;;
11614;SDS011;5863;52.832;4.758;2024-02-14T11:54:15;15.70;;;5.07;;
11614;SDS011;5863;52.832;4.758;2024-02-14T11:56:46;19.65;;;5.35;;
11614;SDS011;5863;52.832;4.758;2024-02-14T11:59:13;12.35;;;4.93;;
11614;SDS011;5863;52.832;4.758;2024-02-14T12:01:40;17.20;;;5.40;;
11614;SDS011;5863;52.832;4.758;2024-02-14T12:04:08;15.73;;;5.13;;
11614;SDS011;5863;52.832;4.758;2024-02-14T12:06:38;19.45;;;5.53;;
11614;SDS011;5863;52.832;4.758;2024-02-14T12:09:07;15.63;;;5.25;;
11614;SDS011;5863;52.832;4.758;2024-02-14T12:11:35;12.32;;;5.57;;
11614;SDS011;5863;52.832;4.758;2024-02-14T12:14:03;35.38;;;7.25;;
11614;SDS011;5863;52.832;4.758;2024-02-14T12:16:33;30.30;;;7.07;;
11614;SDS011;5863;52.832;4.758;2024-02-14T12:19:04;15.77;;;6.22;;
11614;SDS011;5863;52.832;4.758;2024-02-14T12:21:35;26.75;;;7.78;;
11614;SDS011;5863;52.832;4.758;2024-02-14T12:24:04;21.33;;;7.60;;
11614;SDS011;5863;52.832;4.758;2024-02-14T12:26:32;27.23;;;8.02;;
11614;SDS011;5863;52.832;4.758;2024-02-14T12:29:01;13.35;;;7.43;;
11614;SDS011;5863;52.832;4.758;2024-02-14T12:31:29;14.15;;;8.07;;
11614;SDS011;5863;52.832;4.758;2024-02-14T12:33:56;14.40;;;8.35;;
11614;SDS011;5863;52.832;4.758;2024-02-14T12:36:25;13.80;;;8.52;;
11614;SDS011;5863;52.832;4.758;2024-02-14T12:38:52;12.45;;;7.60;;
11614;SDS011;5863;52.832;4.758;2024-02-14T12:41:21;17.00;;;7.82;;
11614;SDS011;5863;52.832;4.758;2024-02-14T12:43:48;16.00;;;8.93;;
11614;SDS011;5863;52.832;4.758;2024-02-14T12:46:15;14.38;;;7.85;;
11614;SDS011;5863;52.832;4.758;2024-02-14T12:48:42;24.17;;;10.00;;
11614;SDS011;5863;52.832;4.758;2024-02-14T12:51:09;16.55;;;8.07;;
11614;SDS011;5863;52.832;4.758;2024-02-14T12:53:36;13.00;;;7.55;;
11614;SDS011;5863;52.832;4.758;2024-02-14T12:56:03;16.17;;;8.05;;
11614;SDS011;5863;52.832;4.758;2024-02-14T12:58:32;13.55;;;8.15;;
11614;SDS011;5863;52.832;4.758;2024-02-14T13:00:59;13.10;;;6.25;;
11614;SDS011;5863;52.832;4.758;2024-02-14T13:03:30;20.70;;;7.25;;
11614;SDS011;5863;52.832;4.758;2024-02-14T13:05:58;15.30;;;7.57;;
11614;SDS011;5863;52.832;4.758;2024-02-14T13:08:25;18.35;;;6.63;;
11614;SDS011;5863;52.832;4.758;2024-02-14T13:10:52;14.70;;;7.00;;
11614;SDS011;5863;52.832;4.758;2024-02-14T13:13:19;13.10;;;6.80;;
11614;SDS011;5863;52.832;4.758;2024-02-14T13:15:47;13.95;;;6.20;;
11614;SDS011;5863;52.832;4.758;2024-02-14T13:18:14;11.27;;;5.05;;
11614;SDS011;5863;52.832;4.758;2024-02-14T13:20:41;11.93;;;5.65;;
11614;SDS011;5863;52.832;4.758;2024-02-14T13:23:09;9.38;;;4.63;;
11614;SDS011;5863;52.832;4.758;2024-02-14T13:25:36;9.50;;;4.75;;
11614;SDS011;5863;52.832;4.758;2024-02-14T13:28:03;14.70;;;5.32;;
11614;SDS011;5863;52.832;4.758;2024-02-14T13:30:30;10.25;;;4.65;;
11614;SDS011;5863;52.832;4.758;2024-02-14T13:32:59;9.82;;;4.00;;
11614;SDS011;5863;52.832;4.758;2024-02-14T13:35:26;8.60;;;3.72;;
11614;SDS011;5863;52.832;4.758;2024-02-14T13:37:54;15.23;;;3.90;;
11614;SDS011;5863;52.832;4.758;2024-02-14T13:40:21;11.73;;;3.70;;
11614;SDS011;5863;52.832;4.758;2024-02-14T13:42:48;9.95;;;3.20;;
11614;SDS011;5863;52.832;4.758;2024-02-14T13:45:15;7.80;;;3.33;;
11614;SDS011;5863;52.832;4.758;2024-02-14T13:47:42;9.27;;;3.17;;
11614;SDS011;5863;52.832;4.758;2024-02-14T13:50:11;5.80;;;3.00;;
11614;SDS011;5863;52.832;4.758;2024-02-14T13:52:38;6.43;;;2.67;;
11614;SDS011;5863;52.832;4.758;2024-02-14T13:55:05;10.20;;;3.00;;
11614;SDS011;5863;52.832;4.758;2024-02-14T13:57:33;9.38;;;2.90;;
11614;SDS011;5863;52.832;4.758;2024-02-14T14:00:02;5.32;;;2.83;;
11614;SDS011;5863;52.832;4.758;2024-02-14T14:02:29;11.27;;;2.92;;
11614;SDS011;5863;52.832;4.758;2024-02-14T14:04:56;10.18;;;3.08;;
11614;SDS011;5863;52.832;4.758;2024-02-14T14:07:24;11.50;;;3.05;;
11614;SDS011;5863;52.832;4.758;2024-02-14T14:09:51;11.35;;;3.30;;
11614;SDS011;5863;52.832;4.758;2024-02-14T14:12:18;9.25;;;3.13;;
11614;SDS011;5863;52.832;4.758;2024-02-14T14:14:45;12.05;;;3.58;;
11614;SDS011;5863;52.832;4.758;2024-02-14T14:17:13;10.98;;;3.45;;
11614;SDS011;5863;52.832;4.758;2024-02-14T14:19:40;9.93;;;3.53;;
11614;SDS011;5863;52.832;4.758;2024-02-14T14:22:07;7.68;;;3.58;;
11614;SDS011;5863;52.832;4.758;2024-02-14T14:24:35;14.25;;;4.35;;
11614;SDS011;5863;52.832;4.758;2024-02-14T14:27:02;15.10;;;4.07;;
11614;SDS011;5863;52.832;4.758;2024-02-14T14:29:32;13.70;;;4.13;;
11614;SDS011;5863;52.832;4.758;2024-02-14T14:31:59;11.68;;;3.95;;
11614;SDS011;5863;52.832;4.758;2024-02-14T14:34:26;11.00;;;4.05;;
11614;SDS011;5863;52.832;4.758;2024-02-14T14:36:55;13.18;;;4.13;;
11614;SDS011;5863;52.832;4.758;2024-02-14T14:39:22;10.85;;;3.55;;
11614;SDS011;5863;52.832;4.758;2024-02-14T14:41:50;13.55;;;4.10;;
11614;SDS011;5863;52.832;4.758;2024-02-14T14:44:18;14.98;;;4.40;;
11614;SDS011;5863;52.832;4.758;2024-02-14T14:46:45;15.98;;;4.35;;
11614;SDS011;5863;52.832;4.758;2024-02-14T14:49:12;13.30;;;4.05;;